Time;durP1;ratioP1;P1;durP2;ratioP2;P2;SDS_P1;SDS_P2;PMS_P1;PMS_P2;Temp;Humidity;BMP_temperature;BMP_pressure;BME280_temperature;BME280_humidity;BME280_pressure;Samples;Min_cycle;Max_cycle;Signal;HPM_P1;HPM_P2
2023/10/17 04:06:55;;;;;;;0.30;0.30;;;3.20;99.90;;;;;;5172746;22;20307;-64
2023/10/17 04:11:52;;;;;;;0.30;0.30;;;3.30;99.90;;;;;;5079543;28;20263;-65
2023/10/17 04:14:20;;;;;;;0.30;0.30;;;3.30;99.90;;;;;;5079405;28;20173;-64
2023/10/17 04:16:46;;;;;;;0.40;0.40;;;3.30;99.90;;;;;;5078396;28;20196;-63
2023/10/17 04:19:18;;;;;;;0.40;0.40;;;3.30;99.90;;;;;;5079557;28;20251;-65
2023/10/17 04:24:34;;;;;;;0.40;0.40;;;3.40;99.90;;;;;;5079109;28;20219;-64
2023/10/17 04:27:24;;;;;;;0.40;0.40;;;3.50;99.90;;;;;;5079596;28;20172;-65
2023/10/17 04:29:50;;;;;;;0.50;0.50;;;3.50;99.90;;;;;;5079332;28;20591;-65
2023/10/17 04:32:26;;;;;;;0.43;0.43;;;3.60;99.90;;;;;;5079495;28;20252;-64
2023/10/17 04:34:52;;;;;;;0.35;0.35;;;3.60;99.90;;;;;;5077904;28;20181;-65
2023/10/17 04:37:34;;;;;;;0.40;0.40;;;3.70;99.90;;;;;;5078618;28;20658;-63
2023/10/17 04:42:56;;;;;;;0.30;0.30;;;3.70;99.90;;;;;;5076445;28;20632;-64
2023/10/17 04:45:27;;;;;;;0.30;0.30;;;3.70;99.90;;;;;;5074291;28;20646;-65
2023/10/17 04:48:11;;;;;;;0.60;0.60;;;3.70;99.90;;;;;;5076276;28;20519;-65
2023/10/17 04:50:56;;;;;;;0.30;0.30;;;3.60;99.90;;;;;;5075989;28;20203;-65
2023/10/17 04:53:28;;;;;;;0.43;0.43;;;3.70;99.90;;;;;;5076000;28;20168;-66
2023/10/17 04:56:13;;;;;;;0.40;0.40;;;3.70;99.90;;;;;;5075320;28;20192;-64
2023/10/17 04:58:57;;;;;;;0.40;0.40;;;3.70;99.90;;;;;;5075602;28;20250;-66
2023/10/17 05:01:46;;;;;;;0.40;0.40;;;3.70;99.90;;;;;;5065372;28;20570;-64
2023/10/17 05:04:33;;;;;;;0.30;0.30;;;3.80;99.90;;;;;;5054532;28;20170;-65
2023/10/17 06:17:49;;;;;;;0.40;0.40;;;4.40;99.90;;;;;;5074167;28;20195;-67
2023/10/17 06:20:18;;;;;;;0.40;0.40;;;4.50;99.90;;;;;;5074251;28;20253;-66
2023/10/17 06:31:10;;;;;;;0.30;0.30;;;4.70;99.90;;;;;;5074220;28;20538;-64
2023/10/17 06:33:35;;;;;;;0.32;0.32;;;4.80;99.90;;;;;;5073944;28;20195;-68
2023/10/17 06:36:13;;;;;;;0.40;0.40;;;4.80;99.90;;;;;;5073601;28;20193;-66
2023/10/17 06:38:46;;;;;;;0.40;0.40;;;4.90;99.90;;;;;;5074015;28;20192;-69
2023/10/17 06:41:25;;;;;;;0.30;0.30;;;4.90;99.90;;;;;;5073749;28;20180;-66
2023/10/17 06:43:58;;;;;;;0.30;0.30;;;5.00;99.90;;;;;;5073479;28;20206;-68
2023/10/17 06:46:30;;;;;;;0.40;0.40;;;5.10;99.90;;;;;;5073879;28;20191;-68
2023/10/17 06:48:57;;;;;;;0.30;0.30;;;5.20;99.90;;;;;;5073943;28;20530;-68
2023/10/17 06:51:33;;;;;;;0.30;0.30;;;5.30;99.90;;;;;;5072396;28;20653;-66
2023/10/17 06:54:12;;;;;;;0.30;0.30;;;5.30;99.90;;;;;;5073155;28;20176;-68
2023/10/17 06:56:44;;;;;;;0.30;0.30;;;5.40;99.90;;;;;;5073363;28;20189;-69
2023/10/17 06:59:24;;;;;;;0.30;0.30;;;5.40;99.90;;;;;;5073718;28;20196;-66
2023/10/17 07:02:04;;;;;;;0.30;0.30;;;5.50;99.90;;;;;;5058646;28;20260;-72
2023/10/17 07:04:30;;;;;;;0.60;0.60;;;5.60;99.90;;;;;;5053088;28;20173;-66
2023/10/17 07:06:55;;;;;;;0.30;0.30;;;5.60;99.90;;;;;;5053499;28;20227;-70
2023/10/17 07:09:24;;;;;;;0.30;0.30;;;5.70;99.90;;;;;;5053463;28;20541;-69
2023/10/17 07:11:52;;;;;;;0.30;0.30;;;5.80;99.90;;;;;;5053552;28;20223;-67
2023/10/17 07:14:24;;;;;;;0.30;0.30;;;5.80;99.90;;;;;;5053208;28;20180;-68
2023/10/17 07:16:57;;;;;;;0.30;0.30;;;5.90;99.90;;;;;;5053225;28;20193;-68
2023/10/17 07:24:37;;;;;;;0.30;0.30;;;6.20;99.90;;;;;;5053205;28;20494;-68
2023/10/17 07:27:11;;;;;;;0.40;0.40;;;6.30;99.90;;;;;;5053461;28;20211;-65
2023/10/17 07:29:37;;;;;;;0.38;0.38;;;6.40;99.90;;;;;;5053531;28;20158;-66
2023/10/17 07:32:09;;;;;;;0.30;0.30;;;6.50;99.90;;;;;;5053051;28;20171;-66
2023/10/17 07:34:36;;;;;;;0.75;0.75;;;6.60;99.90;;;;;;5052822;28;20485;-68
2023/10/17 07:42:40;;;;;;;0.50;0.50;;;6.90;99.90;;;;;;5052949;28;20164;-66
2023/10/17 07:45:14;;;;;;;0.30;0.30;;;7.00;99.90;;;;;;5052697;28;20188;-69
2023/10/17 07:47:42;;;;;;;0.30;0.30;;;7.10;99.90;;;;;;5052925;28;20177;-68
2023/10/17 07:50:12;;;;;;;0.38;0.38;;;7.30;99.90;;;;;;5053557;28;20538;-68
2023/10/17 07:52:49;;;;;;;0.30;0.30;;;7.40;99.90;;;;;;5052974;28;20176;-65
2023/10/17 07:55:21;;;;;;;0.40;0.40;;;7.50;99.90;;;;;;5052612;28;20188;-66
2023/10/17 07:57:51;;;;;;;0.30;0.20;;;7.70;99.90;;;;;;5053077;28;20193;-67
2023/10/17 08:00:27;;;;;;;0.30;0.30;;;7.90;99.90;;;;;;5054033;28;20165;-67
2023/10/17 08:03:00;;;;;;;0.30;0.30;;;8.10;99.90;;;;;;5073142;28;20175;-68
2023/10/17 08:05:27;;;;;;;0.30;0.30;;;8.30;99.90;;;;;;5072522;28;20193;-68
2023/10/17 08:08:04;;;;;;;0.30;0.30;;;8.60;99.90;;;;;;5072843;28;20237;-67
2023/10/17 08:10:33;;;;;;;0.63;0.63;;;8.80;99.90;;;;;;5073053;28;20345;-67
2023/10/17 08:13:00;;;;;;;0.30;0.30;;;9.00;99.90;;;;;;5074093;28;20623;-68
2023/10/17 08:16:10;;;;;;;0.43;0.43;;;9.30;99.90;;;;;;5076390;28;20527;-67
2023/10/17 08:18:14;;;;;;;0.30;0.25;;;9.50;99.90;;;;;;5070883;28;20205;-68
2023/10/17 08:23:26;;;;;;;0.30;0.30;;;9.80;99.90;;;;;;5076808;28;20429;-68
2023/10/17 08:26:00;;;;;;;0.30;0.30;;;10.00;99.90;;;;;;5076236;28;20459;-66
2023/10/17 08:31:22;;;;;;;0.30;0.30;;;10.20;99.90;;;;;;5076743;28;20179;-68
2023/10/17 08:36:41;;;;;;;0.30;0.30;;;10.40;99.90;;;;;;5076469;28;20431;-71
2023/10/17 08:39:31;;;;;;;0.30;0.30;;;10.40;99.90;;;;;;5075188;28;20493;-63
2023/10/17 08:42:49;;;;;;;0.30;0.30;;;10.40;99.90;;;;;;5072634;28;20961;-68
2023/10/17 08:44:47;;;;;;;0.30;0.30;;;10.40;99.90;;;;;;5068238;28;20403;-68
2023/10/17 08:47:18;;;;;;;0.30;0.30;;;10.50;99.90;;;;;;5076236;28;20762;-63
2023/10/17 08:49:45;;;;;;;0.30;0.30;;;10.60;99.90;;;;;;5076187;28;20161;-69
2023/10/17 08:52:27;;;;;;;0.30;0.30;;;10.70;99.90;;;;;;5075986;28;20517;-64
2023/10/17 08:54:53;;;;;;;0.30;0.30;;;10.70;99.90;;;;;;5075697;28;20430;-63
2023/10/17 08:57:19;;;;;;;0.30;0.30;;;10.70;99.90;;;;;;5075941;28;20416;-66
2023/10/17 09:02:17;;;;;;;0.30;0.30;;;10.90;99.90;;;;;;5075878;28;20447;-66
2023/10/17 09:04:43;;;;;;;0.40;0.40;;;10.90;99.90;;;;;;5075390;28;20167;-67
2023/10/17 09:07:18;;;;;;;0.40;0.40;;;11.00;99.90;;;;;;5075389;28;20525;-66
2023/10/17 09:09:47;;;;;;;0.50;0.50;;;10.90;99.90;;;;;;5075748;28;20796;-69
2023/10/17 09:12:19;;;;;;;0.30;0.30;;;10.80;99.90;;;;;;5075915;28;20888;-65
2023/10/17 09:14:49;;;;;;;0.40;0.40;;;10.80;99.90;;;;;;5075271;28;20397;-69
2023/10/17 09:17:28;;;;;;;0.30;0.30;;;10.80;99.90;;;;;;5075574;28;20384;-66
2023/10/17 09:19:54;;;;;;;0.30;0.30;;;10.80;99.90;;;;;;5075618;28;20396;-71
2023/10/17 09:22:23;;;;;;;0.70;0.60;;;10.80;99.90;;;;;;5075679;28;20742;-69
2023/10/17 09:24:49;;;;;;;0.37;0.37;;;10.80;99.90;;;;;;5074066;28;20187;-68
2023/10/17 09:27:17;;;;;;;0.50;0.47;;;10.90;99.90;;;;;;5075406;28;20408;-64
2023/10/17 09:29:58;;;;;;;0.70;0.70;;;11.00;99.90;;;;;;5074158;28;20406;-66
2023/10/17 09:32:38;;;;;;;0.50;0.50;;;11.00;99.90;;;;;;5075181;28;20923;-66
2023/10/17 09:35:11;;;;;;;0.30;0.30;;;11.10;99.90;;;;;;5074734;28;20931;-69
2023/10/17 09:37:50;;;;;;;0.40;0.40;;;11.10;99.90;;;;;;5075072;28;20423;-63
2023/10/17 09:40:33;;;;;;;0.40;0.40;;;11.10;99.90;;;;;;5075018;28;20819;-69
2023/10/17 09:43:00;;;;;;;0.30;0.30;;;11.10;99.90;;;;;;5074913;28;20467;-67
2023/10/17 09:45:33;;;;;;;0.30;0.30;;;11.20;99.90;;;;;;5074646;28;20514;-68
2023/10/17 09:48:04;;;;;;;0.30;0.30;;;11.30;99.90;;;;;;5075079;28;20445;-67
2023/10/17 09:50:33;;;;;;;0.40;0.40;;;11.40;99.90;;;;;;5074968;28;20421;-66
2023/10/17 09:53:02;;;;;;;0.30;0.30;;;11.40;99.90;;;;;;5075281;28;20501;-68
2023/10/17 09:55:28;;;;;;;0.40;0.40;;;11.40;99.90;;;;;;5073018;28;20791;-68
2023/10/17 09:58:00;;;;;;;0.40;0.40;;;11.40;99.90;;;;;;5073408;28;20591;-67
2023/10/17 10:00:42;;;;;;;0.50;0.50;;;11.40;99.90;;;;;;5074563;28;20407;-65
2023/10/17 10:03:08;;;;;;;0.30;0.30;;;11.40;99.90;;;;;;5073322;28;20418;-68
2023/10/17 10:05:34;;;;;;;0.30;0.30;;;11.50;99.90;;;;;;5073789;28;20435;-69
2023/10/17 10:08:04;;;;;;;1.03;0.83;;;11.50;99.90;;;;;;5074631;28;20410;-68
2023/10/17 10:10:42;;;;;;;1.03;1.03;;;11.60;99.90;;;;;;5074373;28;20422;-63
2023/10/17 10:13:13;;;;;;;0.50;0.40;;;11.60;99.90;;;;;;5073089;28;20425;-66
2023/10/17 10:15:58;;;;;;;1.03;0.87;;;11.60;99.90;;;;;;5072413;28;20471;-65
2023/10/17 10:18:36;;;;;;;0.40;0.40;;;11.70;99.90;;;;;;5074407;28;20523;-67
2023/10/17 10:21:03;;;;;;;1.30;1.30;;;11.80;99.90;;;;;;5074413;28;20411;-65
2023/10/17 10:23:39;;;;;;;0.30;0.30;;;11.90;99.90;;;;;;5074139;28;20491;-68
2023/10/17 10:26:11;;;;;;;0.30;0.30;;;11.90;99.90;;;;;;5073657;28;20537;-68
2023/10/17 10:28:38;;;;;;;0.30;0.20;;;12.00;99.90;;;;;;5074344;28;20410;-68
2023/10/17 10:31:21;;;;;;;0.30;0.30;;;12.00;99.90;;;;;;5074247;28;20467;-64
2023/10/17 10:34:00;;;;;;;0.30;0.30;;;12.00;99.90;;;;;;5074119;28;20403;-67
2023/10/17 10:36:26;;;;;;;0.30;0.20;;;12.10;99.90;;;;;;5073561;28;20536;-69
2023/10/17 10:38:55;;;;;;;0.40;0.40;;;12.10;99.80;;;;;;5073967;28;20841;-64
2023/10/17 10:41:25;;;;;;;0.30;0.20;;;12.10;99.90;;;;;;5073773;28;20418;-65
2023/10/17 10:43:58;;;;;;;0.30;0.27;;;12.20;99.90;;;;;;5073699;28;20472;-69
2023/10/17 10:46:24;;;;;;;0.30;0.30;;;12.20;99.90;;;;;;5073856;28;20425;-69
2023/10/17 10:48:53;;;;;;;0.77;0.77;;;12.40;99.90;;;;;;5073779;28;20807;-67
2023/10/17 10:51:24;;;;;;;0.30;0.30;;;12.60;99.80;;;;;;5074311;28;20416;-66
2023/10/17 10:53:56;;;;;;;0.30;0.30;;;12.60;99.30;;;;;;5073748;28;20457;-65
2023/10/17 10:56:24;;;;;;;1.80;0.63;;;12.70;99.00;;;;;;5072627;28;20508;-68
2023/10/17 10:58:53;;;;;;;0.30;0.30;;;12.70;99.20;;;;;;5072814;28;20466;-68
2023/10/17 11:01:20;;;;;;;0.30;0.30;;;12.80;98.80;;;;;;5073557;28;20419;-69
2023/10/17 11:03:47;;;;;;;0.30;0.30;;;12.80;98.90;;;;;;5073926;28;20407;-67
2023/10/17 11:06:14;;;;;;;0.30;0.30;;;12.90;98.90;;;;;;5073243;28;20850;-68
2023/10/17 11:08:45;;;;;;;0.30;0.30;;;12.90;98.70;;;;;;5073486;28;20446;-67
2023/10/17 11:11:13;;;;;;;0.30;0.20;;;12.90;98.50;;;;;;5073477;28;20414;-69
2023/10/17 11:13:40;;;;;;;0.30;0.30;;;12.90;98.70;;;;;;5073571;28;20396;-68
2023/10/17 11:16:07;;;;;;;0.30;0.30;;;12.80;98.70;;;;;;5072588;28;20929;-66
2023/10/17 11:18:34;;;;;;;0.37;0.37;;;12.70;99.10;;;;;;5073499;28;20466;-67
2023/10/17 11:21:00;;;;;;;0.33;0.33;;;12.70;98.90;;;;;;5073489;28;20444;-65
2023/10/17 11:23:27;;;;;;;0.30;0.30;;;12.80;98.80;;;;;;5073303;28;20901;-65
2023/10/17 11:25:54;;;;;;;0.30;0.30;;;12.80;98.90;;;;;;5072903;28;20434;-64
2023/10/17 11:28:20;;;;;;;1.40;0.77;;;12.80;98.70;;;;;;5073261;28;20410;-68
2023/10/17 11:30:48;;;;;;;0.60;0.60;;;12.90;98.80;;;;;;5073215;28;20416;-64
2023/10/17 11:33:16;;;;;;;0.63;0.63;;;12.80;98.70;;;;;;5073446;28;20442;-65
2023/10/17 11:35:52;;;;;;;1.17;0.87;;;12.90;99.10;;;;;;5072989;28;20443;-66
2023/10/17 11:38:38;;;;;;;0.30;0.30;;;12.90;99.00;;;;;;5073065;28;20458;-68
2023/10/17 11:41:10;;;;;;;0.30;0.30;;;13.00;98.90;;;;;;5072906;28;20422;-64
2023/10/17 11:43:58;;;;;;;0.30;0.30;;;13.10;98.90;;;;;;5072861;28;20463;-67
2023/10/17 11:46:33;;;;;;;0.30;0.30;;;13.10;98.50;;;;;;5072757;28;20779;-64
2023/10/17 11:49:20;;;;;;;0.47;0.40;;;13.10;98.40;;;;;;5075867;28;20434;-65
2023/10/17 11:52:15;;;;;;;0.30;0.20;;;13.20;98.50;;;;;;5075732;28;20410;-66
2023/10/17 11:55:16;;;;;;;0.50;0.50;;;13.20;98.20;;;;;;5059454;28;20453;-66
2023/10/17 11:57:45;;;;;;;0.30;0.30;;;13.30;98.60;;;;;;5034152;28;20472;-66
2023/10/17 12:02:49;;;;;;;0.30;0.30;;;13.40;98.30;;;;;;5076481;28;20395;-65
2023/10/17 12:05:18;;;;;;;1.90;1.37;;;13.40;98.30;;;;;;5076079;28;20442;-67
2023/10/17 12:07:57;;;;;;;0.30;0.30;;;13.50;98.30;;;;;;5076430;28;20493;-66
2023/10/17 12:10:28;;;;;;;0.40;0.40;;;13.60;98.00;;;;;;5076624;28;20411;-65
2023/10/17 12:12:59;;;;;;;0.53;0.53;;;13.60;97.90;;;;;;5076536;28;20445;-64
2023/10/17 12:15:25;;;;;;;0.73;0.70;;;13.60;97.60;;;;;;5075863;28;20427;-67
2023/10/17 12:17:53;;;;;;;1.33;1.23;;;13.60;97.60;;;;;;5076466;28;20506;-67
2023/10/17 12:20:25;;;;;;;0.30;0.30;;;13.50;97.50;;;;;;5076282;28;20406;-65
2023/10/17 12:22:55;;;;;;;0.73;0.60;;;13.40;97.80;;;;;;5076247;28;20416;-68
2023/10/17 12:25:23;;;;;;;0.30;0.30;;;13.30;98.40;;;;;;5075803;28;20571;-65
2023/10/17 12:27:52;;;;;;;0.30;0.30;;;13.20;98.00;;;;;;5076287;28;20888;-65
2023/10/17 12:30:28;;;;;;;0.30;0.30;;;13.20;98.30;;;;;;5076342;28;20411;-65
2023/10/17 12:32:57;;;;;;;0.30;0.30;;;13.10;98.30;;;;;;5076297;28;20501;-63
2023/10/17 12:35:23;;;;;;;0.63;0.63;;;13.20;98.60;;;;;;5075607;28;20446;-64
2023/10/17 12:37:57;;;;;;;0.40;0.40;;;13.40;98.40;;;;;;5070178;28;20570;-65
2023/10/17 12:40:22;;;;;;;0.40;0.40;;;13.50;98.20;;;;;;5076163;28;20428;-65
2023/10/17 12:42:49;;;;;;;0.30;0.30;;;13.60;97.80;;;;;;5070546;28;20426;-65
2023/10/17 12:45:15;;;;;;;0.30;0.30;;;13.60;98.20;;;;;;5075578;28;20192;-64
2023/10/17 12:47:43;;;;;;;0.30;0.20;;;13.50;98.10;;;;;;5075029;28;20531;-66
2023/10/17 12:50:11;;;;;;;0.40;0.40;;;13.60;98.00;;;;;;5075002;28;20421;-66
2023/10/17 12:52:37;;;;;;;0.30;0.30;;;13.60;98.00;;;;;;5064470;28;20481;-66
2023/10/17 12:55:04;;;;;;;0.30;0.30;;;13.50;98.00;;;;;;5065517;28;20446;-68
2023/10/17 12:57:29;;;;;;;0.30;0.20;;;13.40;98.50;;;;;;5075312;28;20184;-67
2023/10/17 12:59:58;;;;;;;0.40;0.40;;;13.50;98.50;;;;;;5072675;28;20425;-66
2023/10/17 13:02:30;;;;;;;0.30;0.30;;;13.50;98.70;;;;;;5056406;28;20181;-64
2023/10/17 13:04:58;;;;;;;0.30;0.30;;;13.50;98.80;;;;;;5055400;28;20446;-66
2023/10/17 13:07:23;;;;;;;0.40;0.40;;;13.60;98.70;;;;;;5055502;28;20435;-65
2023/10/17 13:09:49;;;;;;;0.30;0.30;;;13.70;98.40;;;;;;5068523;28;20719;-66
2023/10/17 13:12:15;;;;;;;0.57;0.57;;;13.60;98.20;;;;;;5075471;28;20180;-64
2023/10/17 13:14:40;;;;;;;0.37;0.37;;;13.50;98.40;;;;;;5074939;28;20415;-67
2023/10/17 13:17:11;;;;;;;0.70;0.60;;;13.50;98.60;;;;;;5075575;28;20172;-66
2023/10/17 13:19:43;;;;;;;0.63;0.63;;;13.50;98.90;;;;;;5073266;28;20216;-66
2023/10/17 13:22:14;;;;;;;0.70;0.70;;;13.50;98.80;;;;;;5067324;28;20429;-66
2023/10/17 13:24:40;;;;;;;0.50;0.47;;;13.40;99.00;;;;;;5054892;28;20403;-67
2023/10/17 13:27:06;;;;;;;0.30;0.20;;;13.40;99.20;;;;;;5055239;28;20507;-65
2023/10/17 13:29:32;;;;;;;0.30;0.30;;;13.40;99.10;;;;;;5055229;28;20414;-64
2023/10/17 13:31:58;;;;;;;1.20;1.20;;;13.40;99.00;;;;;;5073170;28;20427;-66
2023/10/17 13:34:27;;;;;;;0.30;0.30;;;13.40;99.10;;;;;;5055184;28;20191;-65
2023/10/17 13:36:52;;;;;;;0.30;0.30;;;13.40;99.10;;;;;;5056732;28;20796;-65
2023/10/17 13:39:22;;;;;;;0.30;0.30;;;13.50;99.10;;;;;;5074910;28;20492;-66
2023/10/17 13:41:50;;;;;;;1.23;0.97;;;13.50;99.10;;;;;;5075070;28;20173;-67
2023/10/17 13:44:16;;;;;;;0.30;0.30;;;13.50;99.00;;;;;;5072075;28;20419;-66
2023/10/17 13:46:42;;;;;;;0.40;0.40;;;13.50;98.80;;;;;;5074833;28;20477;-66
2023/10/17 13:49:09;;;;;;;0.30;0.30;;;13.50;98.80;;;;;;5074687;28;20188;-66
2023/10/17 13:51:34;;;;;;;0.30;0.30;;;13.40;99.00;;;;;;5073149;28;20588;-66
2023/10/17 13:54:00;;;;;;;0.30;0.20;;;13.40;99.30;;;;;;5074209;28;20414;-67
2023/10/17 13:56:27;;;;;;;0.33;0.33;;;13.50;99.10;;;;;;5056953;28;20574;-66
2023/10/17 13:58:53;;;;;;;0.30;0.20;;;13.60;99.50;;;;;;5054769;28;20497;-65
2023/10/17 14:01:31;;;;;;;0.30;0.20;;;13.50;99.60;;;;;;5054713;28;20473;-65
2023/10/17 14:03:59;;;;;;;0.30;0.30;;;13.60;99.20;;;;;;5054241;28;20490;-66
2023/10/17 14:06:38;;;;;;;0.30;0.30;;;13.60;98.70;;;;;;5054274;28;20450;-66
2023/10/17 14:09:03;;;;;;;0.30;0.20;;;13.50;98.90;;;;;;5054513;28;20382;-65
2023/10/17 14:11:29;;;;;;;0.30;0.30;;;13.50;99.00;;;;;;5054091;28;20820;-67
2023/10/17 14:13:55;;;;;;;0.30;0.30;;;13.50;98.90;;;;;;5058734;28;20598;-65
2023/10/17 14:16:22;;;;;;;0.30;0.30;;;13.50;99.10;;;;;;5054401;28;20204;-65
2023/10/17 14:18:52;;;;;;;0.30;0.30;;;13.50;99.20;;;;;;5068063;28;20210;-65
2023/10/17 14:21:34;;;;;;;0.30;0.20;;;13.50;99.30;;;;;;5064325;28;20427;-68
2023/10/17 14:24:07;;;;;;;0.30;0.20;;;13.50;99.20;;;;;;5053752;28;20401;-65
2023/10/17 14:26:33;;;;;;;0.30;0.20;;;13.50;99.00;;;;;;5057401;28;20518;-67
2023/10/17 14:29:00;;;;;;;0.40;0.40;;;13.40;99.30;;;;;;5053908;28;20441;-64
2023/10/17 14:31:29;;;;;;;0.30;0.27;;;13.50;99.50;;;;;;5053956;28;20411;-67
2023/10/17 14:33:55;;;;;;;0.30;0.30;;;13.50;99.50;;;;;;5053457;28;20423;-65
2023/10/17 14:36:21;;;;;;;0.30;0.30;;;13.50;99.50;;;;;;5054683;28;21012;-68
2023/10/17 14:38:48;;;;;;;0.30;0.30;;;13.60;99.50;;;;;;5053693;28;20466;-67
2023/10/17 14:41:14;;;;;;;0.30;0.30;;;13.60;99.10;;;;;;5053837;28;20411;-65
2023/10/17 14:43:46;;;;;;;0.43;0.43;;;13.50;99.20;;;;;;5053695;28;20415;-65
2023/10/17 14:46:13;;;;;;;0.83;0.83;;;13.50;99.40;;;;;;5057856;28;20204;-66
2023/10/17 14:48:40;;;;;;;0.30;0.30;;;13.40;99.40;;;;;;5053599;28;20420;-65
2023/10/17 14:51:06;;;;;;;0.30;0.30;;;13.40;99.40;;;;;;5053644;28;20419;-65
2023/10/17 14:53:32;;;;;;;0.40;0.40;;;13.40;99.40;;;;;;5053715;28;20514;-67
2023/10/17 14:55:58;;;;;;;0.30;0.20;;;13.40;99.10;;;;;;5067511;28;20970;-65
2023/10/17 14:58:24;;;;;;;0.30;0.30;;;13.30;99.10;;;;;;5068293;28;20286;-64
2023/10/17 15:00:53;;;;;;;1.03;1.03;;;13.30;99.20;;;;;;5073292;28;20438;-64
2023/10/17 15:03:20;;;;;;;0.30;0.30;;;13.20;99.40;;;;;;5073294;28;20409;-65
2023/10/17 15:05:45;;;;;;;0.30;0.27;;;13.30;99.40;;;;;;5072868;28;20449;-66
2023/10/17 15:08:11;;;;;;;0.33;0.33;;;13.20;99.60;;;;;;5054720;28;20912;-65
2023/10/17 15:10:40;;;;;;;0.30;0.30;;;13.20;99.40;;;;;;5053556;28;20223;-65
2023/10/17 15:13:09;;;;;;;0.50;0.50;;;13.10;99.30;;;;;;5053607;28;20175;-67
2023/10/17 15:15:36;;;;;;;0.30;0.30;;;13.10;99.30;;;;;;5056284;28;20510;-66
2023/10/17 15:18:02;;;;;;;0.30;0.30;;;13.00;99.50;;;;;;5066823;28;20562;-65
2023/10/17 15:20:28;;;;;;;0.50;0.50;;;12.90;99.60;;;;;;5054232;28;20568;-65
2023/10/17 15:22:54;;;;;;;1.00;1.00;;;12.80;99.90;;;;;;5052412;28;20180;-64
2023/10/17 15:25:20;;;;;;;0.30;0.30;;;12.70;99.90;;;;;;5052788;28;20513;-65
2023/10/17 15:27:46;;;;;;;0.80;0.80;;;12.60;99.90;;;;;;5059939;28;20190;-65
2023/10/17 15:30:15;;;;;;;0.30;0.30;;;12.50;99.90;;;;;;5056339;28;20549;-66
2023/10/17 15:32:44;;;;;;;0.30;0.30;;;12.50;99.90;;;;;;5053184;28;20430;-65
2023/10/17 15:35:12;;;;;;;0.47;0.47;;;12.40;99.90;;;;;;5056412;28;20534;-65
2023/10/17 15:37:38;;;;;;;0.53;0.53;;;12.40;99.90;;;;;;5059404;28;21040;-65
2023/10/17 15:40:07;;;;;;;0.30;0.30;;;12.30;99.90;;;;;;5052889;28;20425;-67
2023/10/17 15:42:34;;;;;;;0.30;0.20;;;12.20;99.90;;;;;;5063492;28;20264;-64
2023/10/17 15:44:59;;;;;;;0.30;0.30;;;12.20;99.90;;;;;;5053427;28;20452;-65
2023/10/17 15:47:25;;;;;;;0.50;0.50;;;12.20;99.90;;;;;;5053043;28;20262;-65
2023/10/17 15:49:51;;;;;;;0.40;0.40;;;12.10;99.90;;;;;;5065151;28;20178;-64
2023/10/17 15:52:18;;;;;;;0.30;0.30;;;12.10;99.90;;;;;;5071517;28;20209;-65
2023/10/17 15:54:47;;;;;;;1.83;1.73;;;12.00;99.90;;;;;;5071551;28;20175;-65
2023/10/17 15:57:14;;;;;;;0.50;0.50;;;12.00;99.90;;;;;;5072211;28;20426;-64
2023/10/17 15:59:39;;;;;;;0.30;0.30;;;11.90;99.90;;;;;;5072995;28;20468;-64
2023/10/17 16:02:07;;;;;;;1.57;1.57;;;11.90;99.90;;;;;;5069397;28;20426;-64
2023/10/17 16:04:34;;;;;;;0.68;0.68;;;11.80;99.90;;;;;;5052438;28;20186;-64
2023/10/17 16:07:00;;;;;;;0.30;0.30;;;11.80;99.90;;;;;;5052950;28;20277;-68
2023/10/17 16:09:27;;;;;;;0.40;0.40;;;11.70;99.90;;;;;;5052865;28;20183;-64
2023/10/17 16:11:55;;;;;;;0.67;0.67;;;11.60;99.90;;;;;;5053521;28;20421;-63
2023/10/17 16:14:22;;;;;;;0.30;0.30;;;11.60;99.90;;;;;;5052986;28;20452;-64
2023/10/17 16:16:48;;;;;;;0.30;0.30;;;11.50;99.90;;;;;;5053028;28;20453;-64
2023/10/17 16:19:15;;;;;;;0.30;0.30;;;11.50;99.90;;;;;;5063576;28;20484;-64
2023/10/17 16:21:41;;;;;;;1.33;0.95;;;11.50;99.90;;;;;;5072737;28;20301;-63
2023/10/17 16:24:07;;;;;;;1.67;1.57;;;11.40;99.90;;;;;;5062145;28;20185;-64
2023/10/17 16:26:35;;;;;;;0.30;0.30;;;11.30;99.90;;;;;;5056295;28;20943;-64
2023/10/17 16:29:01;;;;;;;0.30;0.30;;;11.30;99.90;;;;;;5065300;28;20632;-63
2023/10/17 16:31:27;;;;;;;0.30;0.30;;;11.20;99.90;;;;;;5072229;28;20189;-64
2023/10/17 16:33:53;;;;;;;0.43;0.43;;;11.10;99.90;;;;;;5061079;28;20261;-65
2023/10/17 16:36:18;;;;;;;0.40;0.40;;;11.10;99.90;;;;;;5075582;28;20221;-65
2023/10/17 16:38:48;;;;;;;0.30;0.30;;;11.00;99.90;;;;;;5070561;28;20201;-64
2023/10/17 16:41:14;;;;;;;0.60;0.60;;;10.90;99.90;;;;;;5075924;28;20174;-65
2023/10/17 16:43:41;;;;;;;0.40;0.40;;;10.90;99.90;;;;;;5060540;28;20743;-65
2023/10/17 16:46:08;;;;;;;0.30;0.20;;;10.80;99.90;;;;;;5064585;28;20495;-66
2023/10/17 16:48:34;;;;;;;0.30;0.30;;;10.70;99.90;;;;;;5076286;28;20178;-68
2023/10/17 16:51:00;;;;;;;1.00;1.00;;;10.70;99.90;;;;;;5074564;28;20177;-68
2023/10/17 16:53:28;;;;;;;0.40;0.40;;;10.60;99.90;;;;;;5070609;28;20246;-64
2023/10/17 16:55:53;;;;;;;0.30;0.30;;;10.50;99.90;;;;;;5075125;28;20473;-63
2023/10/17 16:58:19;;;;;;;0.30;0.30;;;10.50;99.90;;;;;;5074648;28;20255;-67
2023/10/17 17:00:45;;;;;;;0.30;0.30;;;10.40;99.90;;;;;;5073188;28;20178;-64
2023/10/17 17:03:12;;;;;;;0.30;0.20;;;10.40;99.90;;;;;;5059718;28;20420;-65
2023/10/17 17:05:37;;;;;;;0.30;0.30;;;10.40;99.90;;;;;;5057449;28;20203;-65
2023/10/17 17:08:04;;;;;;;0.40;0.40;;;10.30;99.90;;;;;;5059483;28;20177;-68
2023/10/17 17:10:30;;;;;;;0.38;0.38;;;10.20;99.90;;;;;;5055780;28;20411;-68
2023/10/17 17:12:58;;;;;;;0.50;0.50;;;10.20;99.90;;;;;;5055284;28;20174;-67
2023/10/17 17:15:27;;;;;;;0.30;0.30;;;10.10;99.90;;;;;;5061981;28;20209;-66
2023/10/17 17:17:52;;;;;;;0.30;0.30;;;10.10;99.90;;;;;;5059730;28;20207;-67
2023/10/17 17:20:18;;;;;;;0.30;0.30;;;10.00;99.90;;;;;;5072768;28;20650;-68
2023/10/17 17:22:45;;;;;;;0.30;0.30;;;10.00;99.90;;;;;;5071197;28;20256;-68
2023/10/17 17:25:15;;;;;;;0.30;0.30;;;10.00;99.90;;;;;;5061368;28;20189;-66
2023/10/17 17:27:41;;;;;;;0.40;0.40;;;10.00;99.90;;;;;;5068864;28;20831;-66
2023/10/17 17:30:08;;;;;;;0.47;0.47;;;9.90;99.90;;;;;;5067570;28;20185;-65
2023/10/17 17:32:37;;;;;;;0.30;0.30;;;9.80;99.90;;;;;;5053458;28;20566;-68
2023/10/17 17:35:06;;;;;;;0.30;0.30;;;9.80;99.90;;;;;;5064939;28;20200;-67
2023/10/17 17:37:32;;;;;;;0.40;0.40;;;9.70;99.90;;;;;;5072060;28;20537;-67
2023/10/17 17:39:57;;;;;;;0.30;0.30;;;9.70;99.90;;;;;;5072896;28;20358;-66
2023/10/17 17:42:23;;;;;;;0.40;0.40;;;9.70;99.90;;;;;;5073658;28;20414;-67
2023/10/17 17:44:49;;;;;;;0.30;0.30;;;9.60;99.90;;;;;;5071264;28;20666;-68
2023/10/17 17:47:14;;;;;;;0.30;0.30;;;9.60;99.90;;;;;;5056940;28;20181;-69
2023/10/17 17:49:43;;;;;;;0.30;0.30;;;9.50;99.90;;;;;;5072876;28;20180;-65
2023/10/17 17:52:10;;;;;;;0.30;0.30;;;9.50;99.90;;;;;;5075174;28;20190;-66
2023/10/17 17:54:36;;;;;;;0.30;0.30;;;9.40;99.90;;;;;;5060963;28;20184;-66
2023/10/17 17:57:02;;;;;;;0.30;0.30;;;9.40;99.90;;;;;;5065662;28;20169;-67
2023/10/17 17:59:28;;;;;;;0.30;0.30;;;9.40;99.90;;;;;;5067187;28;20284;-68
2023/10/17 18:01:55;;;;;;;0.77;0.73;;;9.30;99.90;;;;;;5055873;28;20598;-66
2023/10/17 18:04:22;;;;;;;0.40;0.40;;;9.30;99.90;;;;;;5054365;28;20173;-67
2023/10/17 18:06:48;;;;;;;0.30;0.30;;;9.20;99.90;;;;;;5062859;28;20261;-67
2023/10/17 18:09:16;;;;;;;0.40;0.40;;;9.20;99.90;;;;;;5064639;28;20639;-67
2023/10/17 18:11:42;;;;;;;0.30;0.30;;;9.10;99.90;;;;;;5054648;28;20227;-66
2023/10/17 18:14:09;;;;;;;0.50;0.50;;;9.10;99.90;;;;;;5053997;28;20195;-67
2023/10/17 18:16:35;;;;;;;0.40;0.40;;;9.10;99.90;;;;;;5062379;28;20676;-67
2023/10/17 18:19:03;;;;;;;0.30;0.30;;;9.00;99.90;;;;;;5069472;28;20279;-65
2023/10/17 18:21:32;;;;;;;0.40;0.40;;;9.00;99.90;;;;;;5074466;28;20180;-64
2023/10/17 18:23:58;;;;;;;0.30;0.30;;;8.90;99.90;;;;;;5068294;28;20178;-67
2023/10/17 18:26:24;;;;;;;0.30;0.30;;;8.90;99.90;;;;;;5066512;28;20200;-67
2023/10/17 18:28:49;;;;;;;0.30;0.30;;;8.80;99.90;;;;;;5054310;28;20782;-66
2023/10/17 18:31:16;;;;;;;0.30;0.30;;;8.80;99.90;;;;;;5064087;28;20810;-67
2023/10/17 18:33:45;;;;;;;0.30;0.30;;;8.70;99.90;;;;;;5063214;28;20179;-65
2023/10/17 18:36:13;;;;;;;0.47;0.47;;;8.70;99.90;;;;;;5069833;28;20193;-66
2023/10/17 18:38:39;;;;;;;0.32;0.32;;;8.60;99.90;;;;;;5068001;28;20242;-65
2023/10/17 18:41:08;;;;;;;0.38;0.38;;;8.60;99.90;;;;;;5062806;28;20195;-68
2023/10/17 18:43:37;;;;;;;0.70;0.70;;;8.50;99.90;;;;;;5063550;28;20211;-65
2023/10/17 18:46:07;;;;;;;0.30;0.30;;;8.50;99.90;;;;;;5065807;28;20203;-67
2023/10/17 18:48:33;;;;;;;0.30;0.30;;;8.50;99.90;;;;;;5063170;28;20204;-66
2023/10/17 18:51:03;;;;;;;0.30;0.30;;;8.50;99.90;;;;;;5063653;28;20204;-65
2023/10/17 18:53:29;;;;;;;0.35;0.35;;;8.40;99.90;;;;;;5059417;28;20204;-66
2023/10/17 18:55:59;;;;;;;1.20;1.15;;;8.40;99.90;;;;;;5067078;28;20203;-66
2023/10/17 18:58:25;;;;;;;0.98;0.82;;;8.40;99.90;;;;;;5072768;28;20200;-67
2023/10/17 19:00:51;;;;;;;0.30;0.30;;;8.30;99.90;;;;;;5069952;28;20218;-68